LDRG weather

Grobnicko Polje Airport
Grobnicko, Primorje-Gorski Kotar County, Croatia

Public forecast

Using degrees Celsius for public forecast. Weather courtesy of forecast.io.

METAR (pilot weather report)

Closest report is Rijeka Airport, 10.2 nm (18.8 km) SSE. Retrieved 2019/05/25 04:30 UTC (29 minutes ago):

LDRI 250430Z 04002KT CAVOK 15/13 Q1013

TAF (pilot weather forecast)

Forecast is more than 12 hours old.

Closest forecast is Rijeka Airport, 10.2 nm (18.8 km) SSE. Retrieved 2019/05/24 00:27 UTC (1 day ago):

TAF LDRI 242325Z 2500/2600 VRB02KT CAVOK TX24/2512Z TN15/2503Z